Time;durP1;ratioP1;P1;durP2;ratioP2;P2;SDS_P1;SDS_P2;PMS_P1;PMS_P2;Temp;Humidity;BMP_temperature;BMP_pressure;BME280_temperature;BME280_humidity;BME280_pressure;Samples;Min_cycle;Max_cycle;Signal;HPM_P1;HPM_P2
2024/03/13 00:00:47;;;;;;;9.80;3.13;;;14.10;49.40;;;;;;5008859;28;20095;-61
2024/03/13 00:03:16;;;;;;;7.57;2.83;;;14.10;49.30;;;;;;5014649;28;20057;-61
2024/03/13 00:05:47;;;;;;;7.75;4.03;;;14.10;49.30;;;;;;5016500;28;20400;-61
2024/03/13 00:08:16;;;;;;;5.30;2.88;;;14.10;49.30;;;;;;5016579;28;20065;-62
2024/03/13 00:10:46;;;;;;;6.93;3.33;;;14.00;49.30;;;;;;5008087;28;20061;-62
2024/03/13 00:13:15;;;;;;;7.70;3.72;;;14.00;49.40;;;;;;5012164;28;20550;-62
2024/03/13 00:15:44;;;;;;;5.88;2.78;;;14.00;49.50;;;;;;5015284;28;20058;-62
2024/03/13 00:18:14;;;;;;;4.53;2.65;;;14.00;49.40;;;;;;5009606;28;20053;-63
2024/03/13 00:20:44;;;;;;;5.55;2.58;;;14.10;49.50;;;;;;5013528;28;20060;-62
2024/03/13 00:23:15;;;;;;;5.65;3.13;;;14.10;49.50;;;;;;5023512;28;20064;-62
2024/03/13 00:25:45;;;;;;;3.63;2.67;;;14.10;49.40;;;;;;5026503;28;20064;-63
2024/03/13 00:28:13;;;;;;;4.35;2.33;;;14.10;49.80;;;;;;5019590;28;20060;-62
2024/03/13 00:30:42;;;;;;;5.28;2.88;;;14.10;49.40;;;;;;5005112;28;20433;-62
2024/03/13 00:33:10;;;;;;;9.15;3.45;;;14.10;49.40;;;;;;5018977;28;20064;-62
2024/03/13 00:35:38;;;;;;;4.45;2.33;;;14.00;49.40;;;;;;5018611;28;20475;-63
2024/03/13 00:38:09;;;;;;;4.65;2.92;;;14.00;49.30;;;;;;5019561;28;20637;-62
2024/03/13 00:40:39;;;;;;;4.60;2.72;;;14.00;49.50;;;;;;5025195;28;20857;-63
2024/03/13 00:43:07;;;;;;;4.70;2.25;;;13.90;49.40;;;;;;5018792;28;20057;-63
2024/03/13 00:45:35;;;;;;;5.82;2.75;;;13.90;49.50;;;;;;5015693;28;20053;-63
2024/03/13 00:48:04;;;;;;;10.05;3.33;;;13.80;49.40;;;;;;5015133;28;20527;-63
2024/03/13 00:50:33;;;;;;;4.93;3.30;;;13.80;49.50;;;;;;5008588;28;20097;-63
2024/03/13 00:53:01;;;;;;;4.43;2.40;;;13.80;49.60;;;;;;5018997;28;20058;-63
2024/03/13 00:55:30;;;;;;;4.85;2.70;;;13.80;49.60;;;;;;5013190;28;20077;-66
2024/03/13 00:58:01;;;;;;;5.38;3.15;;;13.70;49.60;;;;;;5015478;28;20069;-63
2024/03/13 01:00:30;;;;;;;5.53;3.25;;;13.70;49.60;;;;;;5008969;28;20400;-62
2024/03/13 01:02:58;;;;;;;6.18;3.22;;;13.70;49.60;;;;;;5018803;28;20058;-62
2024/03/13 01:05:26;;;;;;;11.32;3.58;;;13.70;49.70;;;;;;5016142;28;20057;-63
2024/03/13 01:07:55;;;;;;;3.90;2.90;;;13.60;49.70;;;;;;5014191;28;20092;-62
2024/03/13 01:10:26;;;;;;;27.45;9.43;;;13.50;50.40;;;;;;5020421;28;20061;-62
2024/03/13 01:12:57;;;;;;;13.90;5.47;;;13.50;49.80;;;;;;5023805;28;20049;-61
2024/03/13 01:15:25;;;;;;;6.10;3.45;;;13.40;49.90;;;;;;5015873;28;20153;-62
2024/03/13 01:17:54;;;;;;;4.95;3.50;;;13.40;49.90;;;;;;5014580;28;20081;-63
2024/03/13 01:20:23;;;;;;;5.95;2.88;;;13.40;50.00;;;;;;5002537;28;20140;-61
2024/03/13 01:22:51;;;;;;;14.68;4.00;;;13.40;49.90;;;;;;5009274;28;20808;-61
2024/03/13 01:25:20;;;;;;;20.05;7.57;;;13.40;50.00;;;;;;5017980;28;20053;-64
2024/03/13 01:27:48;;;;;;;13.70;6.22;;;13.40;50.20;;;;;;5019717;28;20248;-62
2024/03/13 01:30:19;;;;;;;14.93;6.28;;;13.40;50.10;;;;;;5023945;28;20064;-62
2024/03/13 01:32:48;;;;;;;7.03;3.55;;;13.40;50.20;;;;;;5007672;28;21743;-63
2024/03/13 01:35:19;;;;;;;3.95;2.22;;;13.40;50.10;;;;;;5022652;28;20088;-62
2024/03/13 01:37:55;;;;;;;12.10;4.57;;;13.40;50.20;;;;;;5021955;28;20050;-62
2024/03/13 01:54:50;;;;;;;7.72;3.63;;;13.40;50.20;;;;;;5016448;28;20084;-61
2024/03/13 01:55:06;;;;;;;2.83;2.05;;;13.20;50.40;;;;;;5017506;28;20093;-63
2024/03/13 01:57:45;;;;;;;6.50;3.38;;;13.10;50.50;;;;;;5012959;28;20065;-62
2024/03/13 02:03:03;;;;;;;3.13;2.50;;;13.00;50.70;;;;;;5040241;28;20049;-61
2024/03/13 02:05:33;;;;;;;7.22;3.50;;;12.90;50.70;;;;;;5018706;28;20076;-62
2024/03/13 02:08:03;;;;;;;4.40;3.28;;;13.00;51.30;;;;;;5024024;28;20053;-63
2024/03/13 02:10:31;;;;;;;6.80;3.25;;;13.00;50.70;;;;;;5017919;28;20067;-61
2024/03/13 02:13:06;;;;;;;3.17;2.60;;;13.00;50.70;;;;;;5024935;28;20073;-62
2024/03/13 02:15:36;;;;;;;4.55;2.50;;;13.00;50.70;;;;;;5015019;28;20064;-63
2024/03/13 02:18:16;;;;;;;4.97;3.15;;;13.10;50.60;;;;;;5012979;28;20056;-63
2024/03/13 02:20:46;;;;;;;5.85;2.80;;;13.10;50.70;;;;;;5011378;28;20936;-62
2024/03/13 02:23:24;;;;;;;5.47;3.22;;;13.10;50.60;;;;;;5015485;28;20065;-62
2024/03/13 02:25:52;;;;;;;6.47;3.58;;;13.10;50.60;;;;;;4998031;28;20743;-62
2024/03/13 02:28:32;;;;;;;3.53;2.70;;;13.00;50.50;;;;;;4996665;28;20134;-62
2024/03/13 02:31:00;;;;;;;3.67;2.70;;;13.00;50.70;;;;;;4996908;28;20140;-62
2024/03/13 02:33:29;;;;;;;6.07;3.30;;;13.00;50.80;;;;;;4983489;28;20053;-63
2024/03/13 02:35:58;;;;;;;6.72;3.33;;;13.00;50.80;;;;;;4998348;28;20057;-63
2024/03/13 02:38:26;;;;;;;6.13;3.00;;;13.00;50.80;;;;;;4993637;28;20070;-63
2024/03/13 02:40:55;;;;;;;4.55;2.83;;;13.00;50.80;;;;;;5009914;28;20063;-61
2024/03/13 02:43:23;;;;;;;5.82;3.40;;;13.00;50.80;;;;;;5014858;28;20053;-62
2024/03/13 02:45:52;;;;;;;4.55;3.00;;;13.00;51.00;;;;;;4993181;28;20432;-61
2024/03/13 02:48:20;;;;;;;5.05;3.42;;;13.00;50.80;;;;;;4997964;28;20062;-61
2024/03/13 02:50:50;;;;;;;18.23;7.68;;;13.10;50.90;;;;;;4986539;28;20508;-62
2024/03/13 02:53:19;;;;;;;7.93;4.18;;;13.10;51.00;;;;;;5001926;28;20077;-63
2024/03/13 02:55:48;;;;;;;6.43;3.40;;;13.20;50.80;;;;;;4992497;28;20772;-63
2024/03/13 02:58:16;;;;;;;5.97;3.60;;;13.20;50.80;;;;;;4989117;28;20057;-62
2024/03/13 03:00:45;;;;;;;27.23;10.52;;;13.20;50.70;;;;;;5014558;28;20057;-62
2024/03/13 03:03:14;;;;;;;6.72;3.85;;;13.20;50.90;;;;;;4997900;28;20111;-62
2024/03/13 03:05:43;;;;;;;3.92;2.40;;;13.20;50.80;;;;;;4996800;28;20136;-61
2024/03/13 03:08:11;;;;;;;4.00;2.75;;;13.30;50.70;;;;;;5012999;28;20049;-62
2024/03/13 03:10:40;;;;;;;11.35;4.40;;;13.20;50.90;;;;;;4991117;28;20049;-63
2024/03/13 03:13:10;;;;;;;4.63;2.65;;;13.20;50.70;;;;;;5012099;28;20058;-63
2024/03/13 03:15:39;;;;;;;8.25;4.55;;;13.20;50.70;;;;;;4982087;28;20490;-62
2024/03/13 03:18:11;;;;;;;6.45;3.95;;;13.20;50.90;;;;;;4984849;28;20501;-62
2024/03/13 03:20:40;;;;;;;11.68;5.80;;;13.20;50.70;;;;;;5003714;28;20181;-61
2024/03/13 03:23:09;;;;;;;10.40;4.88;;;13.20;50.80;;;;;;5014291;28;20046;-62
2024/03/13 03:25:38;;;;;;;6.63;3.47;;;13.20;51.20;;;;;;4994007;28;20139;-62
2024/03/13 03:28:07;;;;;;;5.30;3.72;;;13.10;51.30;;;;;;5012566;28;20053;-62
2024/03/13 03:30:41;;;;;;;16.67;7.03;;;13.10;50.90;;;;;;5002727;28;20132;-63
2024/03/13 03:33:12;;;;;;;6.57;2.90;;;13.10;50.90;;;;;;4990897;28;20068;-62
2024/03/13 03:35:41;;;;;;;7.70;4.55;;;13.20;50.90;;;;;;4997005;28;20556;-62
2024/03/13 03:38:10;;;;;;;5.78;2.83;;;13.20;50.90;;;;;;5017427;28;20061;-62
2024/03/13 03:40:38;;;;;;;7.18;3.42;;;13.20;50.90;;;;;;4976100;28;20061;-62
2024/03/13 03:43:07;;;;;;;4.68;3.20;;;13.20;50.90;;;;;;5001922;28;20653;-62
2024/03/13 03:45:35;;;;;;;6.22;3.38;;;13.20;51.00;;;;;;5003944;28;20128;-61
2024/03/13 03:48:06;;;;;;;9.32;3.80;;;13.30;50.90;;;;;;5005906;28;20136;-63
2024/03/13 03:50:39;;;;;;;9.90;4.07;;;13.30;50.90;;;;;;4982924;28;21003;-62
2024/03/13 03:53:08;;;;;;;8.30;3.47;;;13.30;50.80;;;;;;4997971;28;20046;-62
2024/03/13 03:55:37;;;;;;;9.57;3.15;;;13.20;50.80;;;;;;4985335;28;20062;-61
2024/03/13 03:58:06;;;;;;;8.32;3.38;;;13.20;50.90;;;;;;4994116;28;20085;-62
2024/03/13 04:00:35;;;;;;;5.93;3.38;;;13.20;51.10;;;;;;4992892;28;20088;-62
2024/03/13 04:03:05;;;;;;;5.68;2.70;;;13.20;51.20;;;;;;4998232;28;20062;-62
2024/03/13 04:05:34;;;;;;;7.07;2.90;;;13.20;51.00;;;;;;5011605;28;20061;-63
2024/03/13 04:08:03;;;;;;;3.40;2.75;;;13.20;50.90;;;;;;4985735;28;20058;-64
2024/03/13 04:10:31;;;;;;;8.40;4.72;;;13.10;50.90;;;;;;5007288;28;20057;-63
2024/03/13 04:13:00;;;;;;;5.80;3.25;;;13.10;51.00;;;;;;4998539;28;20061;-62
2024/03/13 04:15:28;;;;;;;7.85;3.33;;;13.10;51.00;;;;;;5005018;28;20695;-62
2024/03/13 04:17:57;;;;;;;8.70;3.88;;;13.10;51.10;;;;;;4999955;28;20057;-62
2024/03/13 04:20:26;;;;;;;6.57;3.63;;;13.00;51.10;;;;;;4992504;28;20053;-62
2024/03/13 04:22:55;;;;;;;4.25;2.72;;;13.00;51.10;;;;;;4997812;28;20144;-61
2024/03/13 04:25:24;;;;;;;4.93;3.20;;;13.00;51.20;;;;;;4998472;28;20143;-63
2024/03/13 04:27:54;;;;;;;4.50;3.08;;;13.00;51.20;;;;;;4996570;28;20069;-62
2024/03/13 04:30:24;;;;;;;5.60;3.25;;;12.90;51.20;;;;;;4994423;28;20279;-61
2024/03/13 04:32:53;;;;;;;5.97;2.80;;;12.90;51.40;;;;;;4995944;28;20135;-62
2024/03/13 04:35:21;;;;;;;6.03;2.80;;;13.00;51.50;;;;;;4998635;28;20052;-62
2024/03/13 04:37:50;;;;;;;4.75;3.00;;;12.90;51.20;;;;;;4996547;28;20053;-63
2024/03/13 04:40:22;;;;;;;3.45;2.40;;;12.90;51.20;;;;;;4997143;28;20049;-62
2024/03/13 04:42:50;;;;;;;6.72;3.35;;;12.90;51.30;;;;;;4979183;28;20500;-62
2024/03/13 04:45:19;;;;;;;6.35;2.88;;;12.90;51.30;;;;;;4996778;28;20060;-62
2024/03/13 04:47:49;;;;;;;7.75;3.22;;;12.90;51.30;;;;;;4991810;28;20105;-61
2024/03/13 04:50:17;;;;;;;5.70;3.10;;;12.90;51.30;;;;;;5004704;28;20077;-61
2024/03/13 04:52:46;;;;;;;5.18;2.85;;;12.90;51.30;;;;;;5007285;28;20065;-62
2024/03/13 04:55:14;;;;;;;6.28;3.60;;;12.90;51.80;;;;;;4996113;28;20057;-62
2024/03/13 04:57:43;;;;;;;5.05;3.08;;;12.90;51.30;;;;;;4999472;28;20053;-62
2024/03/13 05:00:12;;;;;;;11.25;3.08;;;12.90;51.50;;;;;;4996655;28;20057;-62
2024/03/13 05:02:40;;;;;;;4.63;3.22;;;12.90;51.40;;;;;;4988212;28;20053;-62
2024/03/13 05:05:14;;;;;;;6.03;3.60;;;12.90;51.40;;;;;;4992887;28;20049;-62
2024/03/13 05:07:43;;;;;;;4.32;3.00;;;12.90;51.50;;;;;;5014664;28;20439;-63
2024/03/13 05:10:16;;;;;;;6.30;3.72;;;12.90;51.40;;;;;;5002304;28;20061;-62
2024/03/13 05:12:46;;;;;;;4.38;2.70;;;12.90;51.40;;;;;;4996813;28;20057;-63
2024/03/13 05:15:15;;;;;;;3.83;2.72;;;12.90;51.40;;;;;;5014077;28;20528;-62
2024/03/13 05:17:43;;;;;;;5.18;2.90;;;12.90;51.50;;;;;;5019297;28;20075;-62
2024/03/13 05:20:12;;;;;;;6.10;2.97;;;13.00;51.50;;;;;;4996525;28;20061;-62
2024/03/13 05:22:41;;;;;;;4.75;3.08;;;13.00;51.50;;;;;;4991505;28;20603;-63
2024/03/13 05:25:14;;;;;;;6.65;3.20;;;13.10;51.40;;;;;;4996015;28;20506;-62
2024/03/13 05:27:46;;;;;;;9.20;4.07;;;13.10;51.40;;;;;;5007111;28;20057;-63
2024/03/13 05:30:14;;;;;;;4.93;3.83;;;13.10;51.70;;;;;;5017506;28;20061;-63
2024/03/13 05:32:43;;;;;;;6.25;3.47;;;13.20;51.60;;;;;;5009613;28;20052;-61
2024/03/13 05:35:12;;;;;;;5.63;2.80;;;13.20;51.40;;;;;;5002574;28;20069;-63
2024/03/13 05:37:41;;;;;;;4.60;2.92;;;13.20;51.40;;;;;;5003419;28;20065;-63
2024/03/13 05:40:16;;;;;;;4.63;3.38;;;13.20;51.40;;;;;;5014024;28;20052;-60
2024/03/13 05:42:45;;;;;;;4.32;2.65;;;13.20;51.50;;;;;;5013707;28;21028;-60
2024/03/13 05:45:14;;;;;;;4.00;2.38;;;13.20;51.80;;;;;;5000308;28;20061;-61
2024/03/13 05:47:42;;;;;;;7.53;2.70;;;13.20;51.40;;;;;;4997413;28;20061;-60
2024/03/13 05:50:11;;;;;;;9.45;3.10;;;13.10;51.40;;;;;;5002159;28;20060;-62
2024/03/13 05:52:40;;;;;;;6.85;3.10;;;13.10;51.50;;;;;;4992093;28;20061;-60
2024/03/13 05:55:09;;;;;;;5.10;2.40;;;13.10;51.50;;;;;;5004399;28;20110;-60
2024/03/13 05:57:38;;;;;;;5.13;2.72;;;13.20;51.50;;;;;;5004779;28;20096;-61
2024/03/13 06:00:09;;;;;;;3.78;2.35;;;13.20;51.40;;;;;;5007833;28;20064;-61
2024/03/13 06:02:41;;;;;;;4.90;2.97;;;13.20;51.40;;;;;;4987199;28;20076;-60
2024/03/13 06:05:11;;;;;;;6.70;3.35;;;13.30;51.40;;;;;;5002728;28;20129;-60
2024/03/13 06:07:40;;;;;;;4.53;2.65;;;13.30;51.30;;;;;;4997280;28;20065;-63
2024/03/13 06:10:10;;;;;;;3.88;2.75;;;13.40;51.30;;;;;;4988116;28;20063;-60
2024/03/13 06:12:39;;;;;;;5.38;2.72;;;13.30;51.20;;;;;;5007063;28;20053;-60
2024/03/13 06:15:07;;;;;;;6.75;2.67;;;13.30;51.30;;;;;;4994225;28;20052;-62
2024/03/13 06:17:36;;;;;;;5.80;3.45;;;13.40;51.40;;;;;;4999221;28;20147;-60
2024/03/13 06:20:11;;;;;;;5.07;3.00;;;13.40;51.30;;;;;;4991848;28;20730;-60
2024/03/13 06:22:40;;;;;;;6.28;2.97;;;13.40;51.80;;;;;;4985779;28;21056;-60
2024/03/13 06:25:09;;;;;;;7.13;2.83;;;13.50;51.40;;;;;;4988505;28;20068;-62
2024/03/13 06:27:37;;;;;;;7.82;2.70;;;13.60;51.30;;;;;;4982217;28;20117;-63
2024/03/13 06:30:05;;;;;;;6.72;3.35;;;13.60;51.20;;;;;;4997940;28;20785;-64
2024/03/13 06:32:33;;;;;;;4.53;3.03;;;13.60;51.30;;;;;;4989681;28;20060;-62
2024/03/13 06:35:02;;;;;;;3.90;2.92;;;13.60;51.20;;;;;;5011871;28;20751;-61
2024/03/13 06:37:31;;;;;;;5.45;3.13;;;13.70;51.40;;;;;;4996279;28;20740;-62
2024/03/13 06:40:00;;;;;;;4.40;2.88;;;13.70;51.30;;;;;;4997303;28;20152;-62
2024/03/13 06:42:32;;;;;;;5.40;3.63;;;13.80;51.30;;;;;;4993629;28;20057;-63
2024/03/13 06:45:01;;;;;;;4.72;2.92;;;13.80;51.50;;;;;;4996042;28;20575;-64
2024/03/13 06:47:30;;;;;;;5.75;3.08;;;13.80;51.20;;;;;;4999062;28;20061;-62
2024/03/13 06:49:58;;;;;;;3.05;2.50;;;13.90;51.30;;;;;;4996334;28;20117;-61
2024/03/13 06:52:29;;;;;;;5.50;3.20;;;13.90;51.20;;;;;;4997119;28;20061;-62
2024/03/13 06:54:59;;;;;;;7.60;3.65;;;13.90;51.20;;;;;;5016666;28;20451;-61
2024/03/13 06:57:28;;;;;;;6.20;3.60;;;13.90;51.30;;;;;;4995168;28;20142;-61
2024/03/13 06:59:57;;;;;;;4.18;2.90;;;13.90;51.40;;;;;;4996840;28;20534;-62
2024/03/13 07:02:28;;;;;;;8.52;2.95;;;14.00;51.70;;;;;;5010464;28;20531;-64
2024/03/13 07:04:56;;;;;;;7.00;3.33;;;14.00;51.60;;;;;;5000755;28;20065;-62
2024/03/13 07:07:25;;;;;;;5.80;2.95;;;14.00;51.50;;;;;;4999923;28;20499;-62
2024/03/13 07:09:54;;;;;;;4.13;2.53;;;14.10;51.60;;;;;;5002421;28;20080;-61
2024/03/13 07:12:24;;;;;;;4.03;2.72;;;14.10;51.60;;;;;;4998184;28;20069;-62
2024/03/13 07:14:54;;;;;;;6.25;3.15;;;14.20;51.50;;;;;;5006744;28;20453;-62
2024/03/13 07:17:22;;;;;;;6.00;3.40;;;14.40;51.60;;;;;;5007089;28;20064;-61
2024/03/13 07:19:50;;;;;;;4.70;2.65;;;14.60;51.60;;;;;;4981021;28;20480;-61
2024/03/13 07:22:19;;;;;;;9.68;3.38;;;14.70;51.30;;;;;;5001069;28;20061;-62
2024/03/13 07:24:50;;;;;;;4.60;2.75;;;14.80;51.20;;;;;;5010637;28;20518;-62
2024/03/13 07:27:19;;;;;;;7.28;3.45;;;14.90;51.20;;;;;;5010193;28;20607;-61
2024/03/13 07:29:49;;;;;;;3.17;2.47;;;15.00;51.20;;;;;;4996519;28;20112;-62
2024/03/13 07:32:17;;;;;;;5.60;3.40;;;15.20;51.10;;;;;;4998447;28;20065;-62
2024/03/13 07:34:46;;;;;;;7.10;3.83;;;15.30;50.90;;;;;;4994109;28;20152;-62
2024/03/13 07:37:15;;;;;;;5.40;3.45;;;15.40;50.90;;;;;;4996882;28;20050;-61
2024/03/13 07:39:44;;;;;;;5.20;3.67;;;15.50;50.90;;;;;;4997518;28;20072;-63
2024/03/13 07:42:13;;;;;;;4.80;2.92;;;15.70;50.70;;;;;;4986375;28;20062;-63
2024/03/13 07:44:42;;;;;;;6.43;3.15;;;15.80;50.60;;;;;;4996245;28;20065;-61
2024/03/13 07:47:10;;;;;;;5.03;3.38;;;15.70;50.30;;;;;;4999075;28;20115;-62
2024/03/13 07:49:40;;;;;;;6.15;3.13;;;15.60;50.30;;;;;;4996217;28;20139;-61
2024/03/13 07:52:08;;;;;;;4.43;2.90;;;15.50;51.00;;;;;;4995338;28;20060;-62
2024/03/13 07:54:38;;;;;;;3.90;2.60;;;15.30;50.50;;;;;;5004915;28;20566;-63
2024/03/13 07:57:08;;;;;;;6.82;2.67;;;15.20;50.70;;;;;;4994567;28;20144;-62
2024/03/13 07:59:36;;;;;;;4.53;2.70;;;15.20;50.90;;;;;;4998979;28;20061;-62
2024/03/13 08:02:04;;;;;;;3.75;2.72;;;15.40;51.10;;;;;;4997941;28;20081;-61
2024/03/13 08:04:36;;;;;;;8.48;3.00;;;15.60;51.00;;;;;;4988524;28;20081;-62
2024/03/13 08:07:04;;;;;;;4.55;2.65;;;15.90;51.00;;;;;;4996894;28;20058;-61
2024/03/13 08:09:50;;;;;;;3.72;2.53;;;16.30;50.90;;;;;;5005171;28;20057;-64
2024/03/13 08:12:36;;;;;;;6.63;3.15;;;16.70;50.30;;;;;;4993392;28;20464;-61
2024/03/13 08:15:21;;;;;;;2.78;1.83;;;16.90;50.10;;;;;;4985440;28;20058;-63
2024/03/13 08:18:10;;;;;;;5.88;2.50;;;17.00;49.80;;;;;;5011850;28;20107;-62
2024/03/13 08:20:56;;;;;;;6.32;2.45;;;17.30;50.00;;;;;;4999360;28;20088;-61
2024/03/13 08:23:44;;;;;;;5.05;2.83;;;17.70;49.80;;;;;;5000208;28;20076;-62
2024/03/13 08:26:31;;;;;;;4.13;2.42;;;18.00;49.50;;;;;;4988952;28;20069;-64
2024/03/13 08:29:17;;;;;;;3.63;2.40;;;18.30;49.10;;;;;;4988163;28;20052;-60
2024/03/13 08:32:06;;;;;;;3.15;2.20;;;18.50;49.00;;;;;;4995402;28;20053;-61
2024/03/13 08:34:52;;;;;;;4.43;2.38;;;18.70;48.70;;;;;;4996399;28;20451;-60
2024/03/13 08:37:41;;;;;;;4.18;2.60;;;19.10;48.90;;;;;;5014736;28;20420;-61
2024/03/13 08:40:28;;;;;;;6.88;2.47;;;19.50;48.30;;;;;;4994396;28;20106;-61
2024/03/13 08:43:18;;;;;;;3.75;2.30;;;19.90;48.30;;;;;;5013558;28;20045;-60
2024/03/13 08:46:04;;;;;;;4.10;2.22;;;20.30;47.90;;;;;;5000316;28;20472;-61
2024/03/13 08:48:52;;;;;;;6.07;2.88;;;20.90;48.00;;;;;;4992014;28;20123;-62
2024/03/13 08:51:39;;;;;;;4.20;2.30;;;21.70;47.50;;;;;;4983510;28;20053;-61
2024/03/13 08:54:24;;;;;;;5.03;2.65;;;22.70;47.10;;;;;;4996545;28;20061;-61
2024/03/13 08:57:10;;;;;;;6.80;2.65;;;24.00;46.80;;;;;;4990424;28;20049;-62
2024/03/13 08:59:57;;;;;;;;;;;24.90;45.80;;;;;;5000128;28;20053;-62
2024/03/13 09:02:43;;;;;;;13.60;2.45;;;26.50;46.00;;;;;;5007794;28;20964;-62
2024/03/13 09:05:29;;;;;;;;;;;28.40;44.20;;;;;;5000890;28;20813;-61
2024/03/13 09:08:18;;;;;;;5.85;2.63;;;30.00;43.20;;;;;;5013805;28;20072;-63
2024/03/13 09:11:06;;;;;;;5.30;3.15;;;30.70;41.50;;;;;;5005024;28;20061;-62
2024/03/13 09:13:36;;;;;;;5.38;2.45;;;31.80;41.00;;;;;;5001061;28;20045;-61
2024/03/13 09:16:05;;;;;;;2.90;1.83;;;32.40;39.40;;;;;;4988557;28;20107;-62
2024/03/13 09:18:35;;;;;;;7.70;2.30;;;31.70;37.60;;;;;;5004815;28;20049;-61
2024/03/13 09:21:04;;;;;;;7.97;2.15;;;30.70;37.80;;;;;;5012570;28;20117;-62
2024/03/13 09:23:32;;;;;;;2.40;1.30;;;30.80;39.00;;;;;;4999460;28;20085;-65
2024/03/13 09:26:01;;;;;;;2.53;1.55;;;31.10;37.90;;;;;;4995732;28;20157;-62
2024/03/13 09:28:29;;;;;;;2.15;1.40;;;30.20;36.70;;;;;;5003651;28;20089;-61
2024/03/13 09:30:58;;;;;;;21.38;2.28;;;29.20;37.00;;;;;;4988025;28;20055;-64
2024/03/13 09:33:26;;;;;;;10.40;2.65;;;28.40;37.60;;;;;;5000373;28;20119;-64
2024/03/13 09:35:56;;;;;;;3.05;1.80;;;27.60;37.80;;;;;;4987808;28;20059;-62
2024/03/13 09:38:26;;;;;;;1.48;1.25;;;26.80;38.00;;;;;;5009605;28;20068;-60
2024/03/13 09:40:55;;;;;;;2.03;1.40;;;25.90;38.30;;;;;;5001381;28;20129;-60
2024/03/13 09:43:23;;;;;;;6.28;2.08;;;25.10;38.90;;;;;;5003240;28;20084;-63
2024/03/13 09:45:51;;;;;;;6.97;1.75;;;24.70;39.30;;;;;;5016523;28;20054;-61
2024/03/13 09:48:20;;;;;;;2.35;1.50;;;24.10;39.30;;;;;;4998962;28;20057;-64
2024/03/13 09:50:49;;;;;;;2.45;1.90;;;23.60;39.60;;;;;;4996771;28;20076;-63
2024/03/13 09:53:22;;;;;;;3.85;2.00;;;23.00;39.90;;;;;;5002805;28;20140;-60
2024/03/13 09:55:50;;;;;;;3.35;1.73;;;22.60;40.40;;;;;;5003187;28;20115;-63
2024/03/13 09:58:19;;;;;;;9.63;2.55;;;22.20;40.70;;;;;;5004610;28;20060;-61
2024/03/13 10:00:52;;;;;;;6.82;1.88;;;21.90;40.90;;;;;;5013885;28;20073;-62
2024/03/13 10:03:21;;;;;;;3.85;2.25;;;21.70;41.30;;;;;;5002065;28;20542;-62
2024/03/13 10:05:51;;;;;;;9.25;2.28;;;21.80;41.60;;;;;;4993389;28;20481;-63
2024/03/13 10:08:23;;;;;;;5.45;2.15;;;21.90;41.40;;;;;;5002112;28;20128;-61
2024/03/13 10:10:53;;;;;;;11.55;1.70;;;22.20;42.00;;;;;;4995498;28;20147;-61
2024/03/13 10:13:21;;;;;;;5.28;2.38;;;23.40;41.90;;;;;;5010062;28;20574;-61
2024/03/13 10:15:50;;;;;;;10.55;4.82;;;24.20;40.60;;;;;;5011459;28;20061;-60
2024/03/13 10:18:18;;;;;;;3.60;1.75;;;24.70;39.80;;;;;;5004916;28;20052;-61
2024/03/13 10:20:47;;;;;;;10.30;4.68;;;24.90;39.30;;;;;;4997527;28;20065;-62
2024/03/13 10:23:16;;;;;;;2.72;1.88;;;24.80;38.80;;;;;;4998451;28;20053;-60
2024/03/13 10:25:45;;;;;;;4.47;2.10;;;24.70;38.90;;;;;;4998776;28;20122;-64
2024/03/13 10:28:17;;;;;;;12.00;2.75;;;24.50;39.10;;;;;;4996895;28;20761;-63
2024/03/13 10:30:47;;;;;;;13.43;3.30;;;24.30;39.10;;;;;;4995871;28;20107;-61
2024/03/13 10:33:16;;;;;;;4.15;2.42;;;24.00;39.10;;;;;;4997183;28;20496;-63
2024/03/13 10:35:44;;;;;;;16.20;2.70;;;23.90;39.40;;;;;;5000073;28;20133;-61
2024/03/13 10:38:14;;;;;;;5.63;2.20;;;23.90;39.40;;;;;;4997122;28;20125;-61
2024/03/13 10:40:42;;;;;;;5.28;2.95;;;23.80;39.50;;;;;;4992470;28;20551;-62
2024/03/13 10:43:11;;;;;;;6.32;3.08;;;23.60;39.30;;;;;;4997579;28;20064;-63
2024/03/13 10:45:40;;;;;;;4.18;2.47;;;23.30;39.40;;;;;;5001352;28;20377;-64
2024/03/13 10:48:09;;;;;;;4.07;2.47;;;23.00;39.60;;;;;;4996455;28;20061;-60
2024/03/13 10:50:39;;;;;;;3.58;2.05;;;22.70;39.80;;;;;;4985525;28;20492;-61
2024/03/13 10:53:07;;;;;;;4.95;2.47;;;22.50;39.80;;;;;;5000608;28;20068;-61
2024/03/13 10:55:37;;;;;;;1.40;1.27;;;22.20;39.90;;;;;;4997392;28;20061;-62
2024/03/13 10:58:05;;;;;;;5.72;3.28;;;22.00;40.10;;;;;;4997888;28;20064;-60
2024/03/13 11:00:34;;;;;;;7.13;2.00;;;21.80;40.30;;;;;;5006523;28;20531;-61
2024/03/13 11:03:03;;;;;;;4.10;1.90;;;21.60;40.40;;;;;;4999070;28;20069;-61
2024/03/13 11:05:32;;;;;;;8.75;3.13;;;21.40;40.70;;;;;;5009060;28;20054;-61
2024/03/13 11:08:01;;;;;;;7.38;2.50;;;21.30;40.80;;;;;;4998244;28;20483;-61
2024/03/13 11:10:30;;;;;;;4.72;1.83;;;21.40;41.00;;;;;;4991703;28;20053;-61
2024/03/13 11:12:59;;;;;;;7.68;3.08;;;21.40;40.90;;;;;;5001336;28;20145;-61
2024/03/13 11:15:27;;;;;;;3.35;1.98;;;21.40;40.90;;;;;;5000668;28;20057;-65
2024/03/13 11:17:56;;;;;;;5.32;2.70;;;21.50;40.90;;;;;;4997390;28;20073;-61
2024/03/13 11:20:26;;;;;;;4.43;2.70;;;21.60;40.90;;;;;;4988816;28;21672;-60
2024/03/13 11:22:55;;;;;;;9.00;2.80;;;21.70;40.80;;;;;;5010662;28;20073;-60
2024/03/13 11:25:24;;;;;;;11.50;3.85;;;21.80;40.80;;;;;;4997597;28;20520;-60
2024/03/13 11:27:53;;;;;;;4.38;3.35;;;21.80;40.80;;;;;;4999904;28;20061;-62
2024/03/13 11:30:21;;;;;;;7.20;2.42;;;21.90;40.70;;;;;;5000008;28;20071;-62
2024/03/13 11:32:50;;;;;;;14.90;3.38;;;22.10;40.80;;;;;;4999790;28;20495;-63
2024/03/13 11:35:19;;;;;;;5.20;2.92;;;22.20;40.60;;;;;;4996811;28;20057;-61
2024/03/13 11:37:47;;;;;;;7.03;2.97;;;22.40;40.60;;;;;;4994531;28;20049;-62
2024/03/13 11:40:16;;;;;;;2.60;2.40;;;22.60;40.30;;;;;;4991031;28;20049;-61
2024/03/13 11:42:44;;;;;;;3.05;1.77;;;22.60;40.00;;;;;;4990519;28;20075;-60
2024/03/13 11:45:15;;;;;;;3.10;1.52;;;22.60;40.00;;;;;;4985049;28;20592;-62
2024/03/13 11:47:48;;;;;;;20.75;2.15;;;22.50;39.80;;;;;;4994719;28;20508;-60
2024/03/13 11:50:18;;;;;;;2.13;1.38;;;22.40;39.90;;;;;;4998969;28;20051;-61
2024/03/13 11:53:00;;;;;;;2.67;1.60;;;22.40;40.00;;;;;;4996644;28;20056;-61
2024/03/13 11:55:29;;;;;;;5.15;2.47;;;22.40;40.10;;;;;;4993424;28;20065;-61
2024/03/13 11:58:06;;;;;;;6.80;2.38;;;22.50;40.10;;;;;;4996405;28;20140;-62
2024/03/13 12:00:35;;;;;;;9.40;1.92;;;22.60;40.10;;;;;;4991922;28;20064;-60
2024/03/13 12:03:03;;;;;;;2.88;1.38;;;22.80;40.10;;;;;;4996664;28;20080;-64
2024/03/13 12:05:32;;;;;;;3.95;1.77;;;22.80;40.20;;;;;;4994250;28;20057;-62
2024/03/13 12:08:02;;;;;;;15.30;2.47;;;23.00;40.00;;;;;;4994979;28;20053;-62
2024/03/13 12:10:30;;;;;;;4.15;2.20;;;23.20;39.90;;;;;;4985948;28;20060;-64
2024/03/13 12:13:00;;;;;;;9.23;4.25;;;23.40;39.60;;;;;;4993267;28;20057;-62
2024/03/13 12:15:28;;;;;;;4.30;2.67;;;23.40;39.30;;;;;;5000130;28;20048;-62
2024/03/13 12:17:56;;;;;;;3.38;2.15;;;23.40;39.20;;;;;;4995878;28;20568;-62
2024/03/13 12:20:28;;;;;;;3.47;1.95;;;23.30;39.20;;;;;;4981645;28;20164;-63
2024/03/13 12:22:57;;;;;;;7.68;2.72;;;23.00;38.90;;;;;;4986215;28;20077;-61
2024/03/13 12:25:25;;;;;;;2.63;1.58;;;22.70;39.10;;;;;;4999179;28;20076;-61
2024/03/13 12:27:53;;;;;;;1.77;1.30;;;22.50;39.40;;;;;;5002518;28;20125;-61
2024/03/13 12:30:22;;;;;;;1.88;1.30;;;22.20;39.30;;;;;;4998721;28;20075;-62
2024/03/13 12:32:53;;;;;;;5.55;1.85;;;22.00;39.40;;;;;;5004349;28;20057;-62
2024/03/13 12:35:22;;;;;;;2.42;1.30;;;21.80;39.80;;;;;;5014505;28;20045;-61
2024/03/13 12:37:50;;;;;;;1.63;1.35;;;21.80;40.00;;;;;;5000699;28;20041;-62
2024/03/13 12:40:20;;;;;;;1.65;1.45;;;21.90;40.10;;;;;;4999474;28;20049;-62
2024/03/13 12:42:49;;;;;;;1.02;0.93;;;22.00;40.10;;;;;;5000853;28;20196;-60
2024/03/13 12:45:18;;;;;;;1.15;1.00;;;22.20;40.00;;;;;;5018546;28;20053;-61
2024/03/13 12:47:46;;;;;;;1.80;1.30;;;22.30;39.90;;;;;;5000399;28;20060;-65
2024/03/13 12:50:15;;;;;;;2.10;1.27;;;22.50;39.90;;;;;;4998021;28;20058;-61
2024/03/13 12:52:46;;;;;;;6.95;1.50;;;22.60;39.60;;;;;;5003581;28;20228;-64
2024/03/13 12:55:16;;;;;;;2.08;1.15;;;22.50;39.40;;;;;;4992731;28;20059;-62
2024/03/13 12:57:45;;;;;;;4.97;1.30;;;22.40;39.40;;;;;;5024877;28;20102;-63
2024/03/13 13:00:18;;;;;;;5.00;1.52;;;22.30;39.60;;;;;;4994361;28;20068;-62
2024/03/13 13:02:48;;;;;;;1.95;1.60;;;22.10;39.60;;;;;;4995398;28;20050;-62
2024/03/13 13:05:17;;;;;;;4.28;2.35;;;22.10;40.40;;;;;;4995755;28;20053;-62
2024/03/13 13:07:50;;;;;;;4.53;3.10;;;22.10;39.90;;;;;;5001061;28;20148;-62
2024/03/13 13:10:21;;;;;;;6.65;2.92;;;22.10;40.20;;;;;;5020642;28;20080;-65
2024/03/13 13:12:51;;;;;;;3.72;2.10;;;22.30;40.20;;;;;;4999941;28;20053;-62
2024/03/13 13:15:19;;;;;;;2.45;1.77;;;22.40;39.80;;;;;;4991323;28;20065;-62
2024/03/13 13:17:49;;;;;;;8.68;2.35;;;22.50;39.70;;;;;;5000143;28;20056;-61